createdAt,value
2023-04-29T00:02:32.079Z,100.00
2023-04-29T00:05:07.739Z,100.00
2023-04-29T00:07:38.835Z,100.00
2023-04-29T00:10:32.112Z,100.00
2023-04-29T00:13:00.445Z,100.00
2023-04-29T00:15:29.007Z,100.00
2023-04-29T00:17:57.225Z,100.00
2023-04-29T00:20:25.523Z,100.00
2023-04-29T00:22:55.043Z,100.00
2023-04-29T00:25:23.249Z,100.00
2023-04-29T00:27:51.526Z,100.00
2023-04-29T00:30:19.998Z,100.00
2023-04-29T00:32:48.234Z,100.00
2023-04-29T00:35:16.804Z,100.00
2023-04-29T00:37:45.008Z,100.00
2023-04-29T00:40:15.139Z,100.00
2023-04-29T00:42:43.576Z,100.00
2023-04-29T00:45:13.159Z,100.00
2023-04-29T00:47:42.084Z,100.00
2023-04-29T00:50:11.273Z,100.00
2023-04-29T00:52:39.969Z,100.00
2023-04-29T00:55:09.944Z,100.00
2023-04-29T00:57:39.776Z,100.00
2023-04-29T01:00:10.709Z,100.00
2023-04-29T01:02:39.567Z,100.00
2023-04-29T01:05:08.371Z,100.00
2023-04-29T01:07:49.332Z,100.00
2023-04-29T01:10:25.873Z,100.00
2023-04-29T01:13:05.636Z,100.00
2023-04-29T01:15:41.583Z,100.00
2023-04-29T01:18:17.639Z,100.00
2023-04-29T01:20:46.245Z,100.00
2023-04-29T01:23:14.723Z,100.00
2023-04-29T01:25:45.221Z,100.00
2023-04-29T01:28:35.969Z,100.00
2023-04-29T01:31:11.438Z,100.00
2023-04-29T01:33:50.611Z,100.00
2023-04-29T01:36:31.627Z,100.00
2023-04-29T01:39:09.863Z,100.00
2023-04-29T01:41:45.272Z,100.00
2023-04-29T01:44:25.685Z,100.00
2023-04-29T01:46:55.263Z,100.00
2023-04-29T01:49:29.824Z,100.00
2023-04-29T01:51:58.196Z,100.00
2023-04-29T01:54:27.065Z,100.00
2023-04-29T01:56:58.582Z,100.00
2023-04-29T01:59:37.512Z,100.00
2023-04-29T02:02:37.898Z,100.00
2023-04-29T02:05:16.332Z,100.00
2023-04-29T02:08:02.543Z,100.00
2023-04-29T02:10:32.666Z,100.00
2023-04-29T02:13:15.389Z,100.00
2023-04-29T02:15:44.164Z,100.00
2023-04-29T02:18:12.504Z,100.00
2023-04-29T02:20:42.167Z,100.00
2023-04-29T02:23:10.644Z,100.00
2023-04-29T02:25:38.921Z,100.00
2023-04-29T02:28:07.251Z,100.00
2023-04-29T02:30:36.850Z,100.00
2023-04-29T02:33:08.304Z,100.00
2023-04-29T02:35:37.184Z,100.00
2023-04-29T02:38:05.537Z,100.00
2023-04-29T02:40:33.830Z,100.00
2023-04-29T02:43:02.223Z,100.00
2023-04-29T02:45:30.643Z,100.00
2023-04-29T02:48:01.316Z,100.00
2023-04-29T02:50:29.765Z,100.00
2023-04-29T02:52:58.203Z,100.00
2023-04-29T02:55:26.927Z,100.00
2023-04-29T02:57:57.737Z,100.00
2023-04-29T03:00:25.954Z,100.00
2023-04-29T03:02:54.266Z,100.00
2023-04-29T03:05:24.283Z,100.00
2023-04-29T03:07:52.528Z,100.00
2023-04-29T03:10:21.114Z,100.00
2023-04-29T03:12:49.605Z,100.00
2023-04-29T03:15:18.117Z,100.00
2023-04-29T03:17:46.825Z,100.00
2023-04-29T03:20:15.398Z,100.00
2023-04-29T03:22:45.008Z,100.00
2023-04-29T03:25:13.440Z,100.00
2023-04-29T03:27:41.911Z,100.00
2023-04-29T03:30:12.092Z,100.00
2023-04-29T03:32:46.866Z,100.00
2023-04-29T03:35:15.958Z,100.00
2023-04-29T03:38:05.940Z,100.00
2023-04-29T03:40:35.917Z,100.00
2023-04-29T03:43:04.221Z,100.00
2023-04-29T03:45:33.066Z,100.00
2023-04-29T03:48:02.766Z,100.00
2023-04-29T03:50:31.969Z,100.00
2023-04-29T03:53:00.247Z,100.00
2023-04-29T03:55:32.729Z,100.00
2023-04-29T03:58:01.199Z,100.00
2023-04-29T04:00:31.299Z,100.00
2023-04-29T04:03:04.428Z,100.00
2023-04-29T04:05:34.093Z,100.00
2023-04-29T04:08:08.712Z,100.00
2023-04-29T04:10:53.662Z,100.00
2023-04-29T04:13:33.806Z,100.00
2023-04-29T04:16:02.117Z,100.00
2023-04-29T04:18:32.383Z,100.00
2023-04-29T04:21:07.660Z,100.00
2023-04-29T04:23:38.058Z,100.00
2023-04-29T04:26:08.186Z,100.00
2023-04-29T04:29:02.524Z,100.00
2023-04-29T04:31:57.050Z,100.00
2023-04-29T04:34:26.365Z,100.00
2023-04-29T04:36:56.649Z,100.00
2023-04-29T04:39:24.965Z,100.00
2023-04-29T04:41:56.259Z,100.00
2023-04-29T04:44:24.726Z,100.00
2023-04-29T04:47:03.095Z,100.00
2023-04-29T04:50:00.579Z,100.00
2023-04-29T04:52:28.795Z,100.00
2023-04-29T04:55:05.032Z,100.00
2023-04-29T04:57:38.162Z,100.00
2023-04-29T05:00:08.756Z,100.00
2023-04-29T05:02:37.911Z,100.00
2023-04-29T05:05:07.050Z,100.00
2023-04-29T05:07:37.755Z,100.00
2023-04-29T05:10:08.617Z,100.00
2023-04-29T05:12:44.856Z,100.00
2023-04-29T05:15:15.052Z,100.00
2023-04-29T05:17:44.728Z,100.00
2023-04-29T05:20:13.999Z,100.00
2023-04-29T05:22:42.290Z,100.00
2023-04-29T05:25:11.447Z,100.00
2023-04-29T05:27:40.496Z,100.00
2023-04-29T05:30:14.489Z,100.00
2023-04-29T05:32:42.755Z,100.00
2023-04-29T05:35:14.757Z,100.00
2023-04-29T05:37:43.123Z,100.00
2023-04-29T05:40:26.256Z,100.00
2023-04-29T05:43:01.832Z,100.00
2023-04-29T05:45:31.448Z,100.00
2023-04-29T05:47:59.669Z,100.00
2023-04-29T05:50:27.944Z,100.00
2023-04-29T05:52:56.565Z,100.00
2023-04-29T05:55:26.737Z,100.00
2023-04-29T05:57:55.099Z,100.00
2023-04-29T06:00:23.682Z,100.00
2023-04-29T06:02:59.347Z,100.00
2023-04-29T06:05:57.149Z,100.00
2023-04-29T06:08:44.012Z,100.00
2023-04-29T06:11:20.143Z,100.00
2023-04-29T06:13:48.707Z,100.00
2023-04-29T06:16:17.302Z,100.00
2023-04-29T06:18:46.845Z,100.00
2023-04-29T06:21:16.331Z,100.00
2023-04-29T06:23:45.275Z,100.00
2023-04-29T06:26:19.086Z,100.00
2023-04-29T06:28:47.506Z,100.00
2023-04-29T06:31:16.657Z,100.00
2023-04-29T06:33:46.638Z,100.00
2023-04-29T06:36:14.920Z,100.00
2023-04-29T06:39:01.711Z,100.00
2023-04-29T06:41:49.810Z,100.00
2023-04-29T06:44:36.761Z,100.00
2023-04-29T06:47:40.690Z,100.00
2023-04-29T06:50:15.124Z,100.00
2023-04-29T06:52:45.489Z,100.00
2023-04-29T06:55:13.730Z,100.00
2023-04-29T06:57:43.952Z,100.00
2023-04-29T07:00:12.949Z,100.00
2023-04-29T07:02:41.215Z,100.00
2023-04-29T07:05:11.349Z,100.00
2023-04-29T07:07:41.053Z,100.00
2023-04-29T07:10:10.492Z,100.00
2023-04-29T07:12:38.702Z,100.00
2023-04-29T07:15:08.587Z,100.00
2023-04-29T07:17:36.812Z,100.00
2023-04-29T07:20:06.789Z,100.00
2023-04-29T07:22:35.006Z,100.00
2023-04-29T07:25:06.313Z,100.00
2023-04-29T07:27:35.955Z,100.00
2023-04-29T07:30:05.169Z,100.00
2023-04-29T07:32:33.752Z,100.00
2023-04-29T07:35:05.580Z,100.00
2023-04-29T07:37:33.834Z,100.00
2023-04-29T07:40:02.104Z,100.00
2023-04-29T07:42:31.726Z,100.00
2023-04-29T07:45:00.773Z,100.00
2023-04-29T07:47:29.542Z,100.00
2023-04-29T07:49:58.363Z,100.00
2023-04-29T07:52:26.722Z,100.00
2023-04-29T07:54:56.331Z,100.00
2023-04-29T07:57:24.800Z,100.00
2023-04-29T07:59:54.978Z,100.00
2023-04-29T08:02:23.269Z,100.00
2023-04-29T08:04:54.726Z,100.00
2023-04-29T08:07:45.434Z,100.00
2023-04-29T08:10:14.854Z,100.00
2023-04-29T08:12:48.398Z,100.00
2023-04-29T08:15:18.616Z,100.00
2023-04-29T08:17:47.050Z,100.00
2023-04-29T08:20:15.460Z,100.00
2023-04-29T08:22:43.710Z,100.00
2023-04-29T08:25:12.515Z,100.00
2023-04-29T08:27:48.205Z,100.00
2023-04-29T08:30:18.205Z,100.00
2023-04-29T08:32:46.453Z,100.00
2023-04-29T08:35:14.705Z,100.00
2023-04-29T08:37:43.122Z,100.00
2023-04-29T08:40:37.558Z,100.00
2023-04-29T08:43:06.311Z,100.00
2023-04-29T08:45:36.427Z,100.00
2023-04-29T08:48:05.125Z,100.00
2023-04-29T08:50:34.372Z,100.00
2023-04-29T08:53:02.715Z,100.00
2023-04-29T08:55:31.085Z,100.00
2023-04-29T08:57:59.193Z,100.00
2023-04-29T09:00:27.548Z,100.00
2023-04-29T09:02:59.481Z,100.00
2023-04-29T09:05:29.019Z,100.00
2023-04-29T09:08:03.100Z,100.00
2023-04-29T09:10:31.797Z,100.00
2023-04-29T09:12:59.994Z,100.00
2023-04-29T09:15:28.938Z,100.00
2023-04-29T09:17:58.513Z,100.00
2023-04-29T09:20:33.130Z,100.00
2023-04-29T09:23:04.119Z,100.00
2023-04-29T09:25:32.611Z,100.00
2023-04-29T09:28:15.775Z,100.00
2023-04-29T09:30:48.219Z,100.00
2023-04-29T09:33:17.778Z,100.00
2023-04-29T09:35:47.079Z,100.00
2023-04-29T09:38:16.983Z,100.00
2023-04-29T09:40:57.389Z,100.00
2023-04-29T09:43:27.686Z,100.00
2023-04-29T09:45:56.994Z,100.00
2023-04-29T09:48:33.778Z,100.00
2023-04-29T09:51:04.137Z,100.00
2023-04-29T09:53:33.411Z,100.00
2023-04-29T09:56:03.722Z,100.00
2023-04-29T09:58:38.319Z,100.00
2023-04-29T10:01:07.723Z,100.00
2023-04-29T10:03:39.327Z,100.00
2023-04-29T10:06:09.242Z,100.00
2023-04-29T10:08:46.447Z,100.00
2023-04-29T10:11:15.903Z,100.00
2023-04-29T10:13:44.976Z,100.00
2023-04-29T10:16:30.296Z,100.00
2023-04-29T10:19:06.853Z,100.00
2023-04-29T10:21:35.331Z,100.00
2023-04-29T10:24:05.149Z,100.00
2023-04-29T10:26:37.776Z,100.00
2023-04-29T10:29:10.215Z,100.00
2023-04-29T10:31:42.276Z,100.00
2023-04-29T10:34:14.006Z,100.00
2023-04-29T10:36:42.317Z,100.00
2023-04-29T10:39:25.409Z,100.00
2023-04-29T10:41:54.167Z,100.00
2023-04-29T10:44:24.057Z,100.00
2023-04-29T10:47:22.408Z,100.00
2023-04-29T10:50:08.909Z,98.50
2023-04-29T10:52:56.433Z,98.08
2023-04-29T10:55:25.760Z,99.32
2023-04-29T10:57:56.448Z,98.76
2023-04-29T11:00:27.911Z,100.00
2023-04-29T11:02:56.642Z,99.85
2023-04-29T11:05:36.145Z,98.76
2023-04-29T11:08:12.639Z,99.44
2023-04-29T11:10:43.898Z,99.78
2023-04-29T11:13:22.789Z,100.00
2023-04-29T11:15:53.016Z,100.00
2023-04-29T11:18:21.406Z,100.00
2023-04-29T11:21:15.910Z,97.82
2023-04-29T11:23:45.471Z,99.03
2023-04-29T11:26:13.666Z,98.03
2023-04-29T11:28:44.540Z,96.36
2023-04-29T11:31:12.779Z,96.45
2023-04-29T11:33:41.081Z,95.74
2023-04-29T11:36:10.919Z,96.56
2023-04-29T11:38:42.364Z,97.58
2023-04-29T11:41:12.615Z,97.69
2023-04-29T11:43:40.851Z,97.75
2023-04-29T11:46:14.259Z,97.86
2023-04-29T11:48:48.802Z,98.02
2023-04-29T11:51:19.011Z,97.20
2023-04-29T11:53:48.731Z,96.72
2023-04-29T11:56:17.052Z,96.20
2023-04-29T11:58:45.671Z,95.66
2023-04-29T12:01:14.107Z,96.73
2023-04-29T12:03:45.295Z,97.54
2023-04-29T12:06:15.866Z,97.58
2023-04-29T12:08:45.374Z,97.51
2023-04-29T12:11:15.772Z,96.64
2023-04-29T12:13:44.049Z,96.17
2023-04-29T12:16:12.821Z,96.01
2023-04-29T12:18:41.219Z,96.30
2023-04-29T12:21:09.496Z,96.08
2023-04-29T12:23:38.289Z,95.44
2023-04-29T12:26:06.825Z,95.24
2023-04-29T12:28:36.398Z,95.27
2023-04-29T12:31:05.082Z,94.60
2023-04-29T12:33:33.269Z,93.79
2023-04-29T12:36:02.068Z,93.34
2023-04-29T12:38:32.251Z,93.97
2023-04-29T12:41:01.855Z,94.80
2023-04-29T12:43:31.350Z,93.64
2023-04-29T12:46:04.507Z,92.61
2023-04-29T12:48:34.176Z,92.74
2023-04-29T12:51:03.272Z,92.50
2023-04-29T12:53:31.990Z,91.49
2023-04-29T12:56:00.734Z,91.38
2023-04-29T12:58:30.605Z,91.08
2023-04-29T13:00:59.325Z,91.00
2023-04-29T13:03:29.143Z,89.97
2023-04-29T13:05:57.477Z,88.76
2023-04-29T13:08:25.697Z,88.71
2023-04-29T13:10:53.874Z,87.49
2023-04-29T13:13:22.258Z,87.98
2023-04-29T13:15:50.427Z,87.18
2023-04-29T13:18:18.712Z,86.39
2023-04-29T13:20:48.287Z,85.65
2023-04-29T13:23:16.540Z,85.45
2023-04-29T13:25:44.761Z,84.55
2023-04-29T13:28:13.241Z,85.21
2023-04-29T13:30:41.443Z,85.85
2023-04-29T13:33:12.656Z,84.89
2023-04-29T13:35:42.107Z,85.44
2023-04-29T13:38:11.910Z,85.82
2023-04-29T13:40:46.060Z,86.12
2023-04-29T13:43:20.918Z,86.27
2023-04-29T13:45:57.475Z,86.87
2023-04-29T13:48:54.823Z,86.93
2023-04-29T13:51:57.840Z,85.79
2023-04-29T14:02:21.467Z,86.15
2023-04-29T14:04:50.815Z,85.86
2023-04-29T14:07:19.416Z,85.81
2023-04-29T14:09:49.827Z,86.06
2023-04-29T14:12:18.289Z,86.17
2023-04-29T14:14:46.461Z,87.27
2023-04-29T14:17:14.737Z,86.81
2023-04-29T14:19:42.997Z,88.62
2023-04-29T14:22:11.222Z,87.42
2023-04-29T14:24:40.358Z,87.54
2023-04-29T14:27:09.921Z,88.29
2023-04-29T14:29:38.073Z,88.48
2023-04-29T14:32:07.382Z,88.72
2023-04-29T14:34:35.608Z,89.64
2023-04-29T14:37:03.802Z,88.84
2023-04-29T14:39:32.123Z,89.03
2023-04-29T14:42:02.262Z,89.12
2023-04-29T14:44:33.335Z,88.19
2023-04-29T14:47:01.526Z,88.48
2023-04-29T14:49:31.505Z,86.83
2023-04-29T14:52:00.065Z,87.58
2023-04-29T14:54:29.149Z,87.33
2023-04-29T14:56:57.337Z,87.17
2023-04-29T14:59:25.991Z,87.21
2023-04-29T15:01:56.425Z,87.06
2023-04-29T15:04:27.612Z,86.73
2023-04-29T15:06:58.194Z,86.84
2023-04-29T15:09:26.775Z,86.89
2023-04-29T15:11:54.923Z,85.81
2023-04-29T15:14:23.127Z,86.03
2023-04-29T15:16:51.545Z,85.25
2023-04-29T15:19:21.354Z,85.30
2023-04-29T15:21:49.540Z,85.18
2023-04-29T15:24:18.415Z,85.25
2023-04-29T15:26:47.261Z,84.37
2023-04-29T15:29:15.547Z,84.68
2023-04-29T15:31:43.826Z,84.47
2023-04-29T15:34:12.130Z,85.15
2023-04-29T15:36:42.864Z,84.68
2023-04-29T15:39:12.235Z,84.75
2023-04-29T15:41:40.682Z,84.58
2023-04-29T15:44:08.874Z,83.80
2023-04-29T15:46:37.109Z,84.08
2023-04-29T15:49:06.575Z,84.44
2023-04-29T15:51:34.751Z,84.29
2023-04-29T15:54:05.012Z,83.27
2023-04-29T15:56:33.471Z,83.94
2023-04-29T15:59:01.638Z,83.95
2023-04-29T16:01:36.230Z,83.78
2023-04-29T16:04:31.309Z,83.52
2023-04-29T16:07:01.476Z,82.50
2023-04-29T16:09:31.040Z,82.96
2023-04-29T16:11:59.517Z,83.75
2023-04-29T16:17:19.994Z,83.50
2023-04-29T16:19:48.608Z,84.00
2023-04-29T16:22:16.775Z,83.51
2023-04-29T16:24:49.210Z,84.89
2023-04-29T16:27:18.171Z,84.47
2023-04-29T16:29:46.644Z,84.43
2023-04-29T16:32:14.818Z,83.81
2023-04-29T16:34:42.946Z,84.77
2023-04-29T16:37:12.589Z,85.40
2023-04-29T16:39:41.616Z,86.02
2023-04-29T16:42:11.253Z,85.57
2023-04-29T16:44:39.379Z,85.78
2023-04-29T16:47:07.974Z,84.74
2023-04-29T16:49:36.257Z,85.07
2023-04-29T16:52:05.691Z,85.99
2023-04-29T16:54:33.887Z,85.97
2023-04-29T16:57:02.284Z,86.00
2023-04-29T16:59:32.120Z,86.25
2023-04-29T17:02:02.709Z,86.57
2023-04-29T17:04:32.239Z,87.15
2023-04-29T17:07:01.425Z,86.81
2023-04-29T17:09:29.672Z,87.19
2023-04-29T17:11:58.072Z,87.27
2023-04-29T17:14:26.336Z,86.88
2023-04-29T17:16:56.208Z,87.07
2023-04-29T17:19:24.379Z,87.65
2023-04-29T17:21:53.374Z,87.63
2023-04-29T17:24:21.559Z,87.09
2023-04-29T17:26:49.747Z,87.68
2023-04-29T17:29:17.989Z,87.70
2023-04-29T17:31:47.879Z,87.73
2023-04-29T17:34:23.817Z,88.09
2023-04-29T17:36:52.565Z,87.96
2023-04-29T17:39:20.981Z,88.05
2023-04-29T17:41:49.237Z,88.13
2023-04-29T17:44:17.421Z,88.08
2023-04-29T17:46:45.603Z,87.95
2023-04-29T17:49:13.901Z,88.00
2023-04-29T17:51:43.505Z,86.72
2023-04-29T17:54:11.739Z,87.34
2023-04-29T17:56:39.923Z,86.89
2023-04-29T17:59:08.805Z,87.18
2023-04-29T18:01:37.824Z,87.91
2023-04-29T18:04:07.482Z,87.76
2023-04-29T18:06:46.737Z,87.56
2023-04-29T18:09:15.484Z,88.02
2023-04-29T18:11:44.008Z,88.78
2023-04-29T18:14:12.292Z,89.95
2023-04-29T18:16:40.538Z,88.89
2023-04-29T18:19:08.977Z,88.80
2023-04-29T18:21:37.138Z,88.55
2023-04-29T18:24:07.804Z,88.67
2023-04-29T18:26:36.038Z,87.79
2023-04-29T18:29:04.436Z,88.09
2023-04-29T18:31:32.641Z,88.24
2023-04-29T18:34:00.858Z,88.06
2023-04-29T18:36:29.237Z,88.11
2023-04-29T18:38:57.418Z,89.00
2023-04-29T18:41:27.280Z,89.60
2023-04-29T18:43:55.417Z,89.91
2023-04-29T18:46:24.415Z,90.27
2023-04-29T18:48:52.630Z,90.11
2023-04-29T18:51:22.286Z,90.50
2023-04-29T18:53:50.488Z,90.03
2023-04-29T18:56:18.681Z,90.67
2023-04-29T18:58:48.330Z,90.59
2023-04-29T19:01:16.891Z,90.62
2023-04-29T19:03:45.060Z,91.24
2023-04-29T19:06:13.260Z,90.67
2023-04-29T19:08:41.513Z,91.21
2023-04-29T19:11:09.722Z,91.78
2023-04-29T19:13:37.928Z,91.30
2023-04-29T19:16:07.688Z,91.96
2023-04-29T19:18:36.136Z,91.49
2023-04-29T19:21:04.594Z,91.48
2023-04-29T19:23:32.804Z,92.49
2023-04-29T19:26:01.045Z,92.80
2023-04-29T19:28:29.280Z,92.37
2023-04-29T19:30:57.490Z,92.70
2023-04-29T19:33:27.177Z,93.63
2023-04-29T19:35:55.954Z,93.78
2023-04-29T19:38:24.372Z,94.39
2023-04-29T19:40:55.295Z,94.73
2023-04-29T19:43:23.690Z,95.35
2023-04-29T19:45:52.065Z,94.66
2023-04-29T19:48:20.268Z,95.28
2023-04-29T19:50:59.533Z,94.94
2023-04-29T19:53:27.917Z,94.84
2023-04-29T19:55:56.237Z,95.63
2023-04-29T19:58:24.605Z,95.40
2023-04-29T20:00:52.817Z,95.44
2023-04-29T20:03:21.699Z,96.12
2023-04-29T20:05:49.985Z,96.07
2023-04-29T20:08:19.994Z,95.68
2023-04-29T20:10:54.448Z,95.95
2023-04-29T20:13:22.724Z,96.56
2023-04-29T20:15:50.953Z,95.67
2023-04-29T20:18:19.885Z,95.24
2023-04-29T20:20:48.458Z,95.39
2023-04-29T20:23:16.602Z,94.54
2023-04-29T20:25:46.198Z,95.01
2023-04-29T20:28:14.603Z,93.93
2023-04-29T20:30:42.718Z,94.53
2023-04-29T20:33:10.967Z,93.19
2023-04-29T20:35:39.155Z,93.96
2023-04-29T20:38:07.908Z,93.90
2023-04-29T20:40:36.722Z,93.57
2023-04-29T20:43:06.266Z,93.16
2023-04-29T20:45:37.273Z,93.65
2023-04-29T20:48:06.551Z,94.06
2023-04-29T20:50:34.727Z,94.56
2023-04-29T20:53:03.348Z,93.14
2023-04-29T20:55:31.567Z,93.38
2023-04-29T20:57:59.757Z,92.71
2023-04-29T21:00:29.295Z,91.98
2023-04-29T21:02:57.520Z,92.50
2023-04-29T21:05:26.016Z,93.13
2023-04-29T21:07:54.193Z,92.48
2023-04-29T21:10:22.711Z,92.86
2023-04-29T21:12:50.977Z,92.35
2023-04-29T21:15:19.402Z,92.75
2023-04-29T21:17:48.985Z,92.02
2023-04-29T21:20:17.648Z,93.56
2023-04-29T21:22:46.027Z,93.00
2023-04-29T21:25:14.281Z,93.57
2023-04-29T21:27:42.479Z,93.39
2023-04-29T21:30:11.858Z,92.20
2023-04-29T21:32:40.111Z,92.61
2023-04-29T21:35:11.106Z,92.46
2023-04-29T21:37:39.400Z,92.91
2023-04-29T21:40:09.543Z,93.19
2023-04-29T21:42:38.166Z,92.34
2023-04-29T21:45:08.453Z,93.04
2023-04-29T21:47:36.691Z,92.36
2023-04-29T21:50:05.530Z,93.79
2023-04-29T21:52:35.510Z,92.87
2023-04-29T21:55:08.957Z,92.76
2023-04-29T21:57:44.322Z,92.19
2023-04-29T22:00:28.709Z,93.06
2023-04-29T22:02:57.043Z,91.75
2023-04-29T22:05:25.708Z,93.34
2023-04-29T22:07:57.056Z,92.41
2023-04-29T22:10:25.750Z,93.11
2023-04-29T22:16:11.645Z,93.35
2023-04-29T22:18:39.893Z,92.65
2023-04-29T22:21:08.542Z,93.02
2023-04-29T22:23:38.583Z,92.47
2023-04-29T22:26:06.867Z,92.23
2023-04-29T22:28:35.344Z,92.23
2023-04-29T22:31:03.503Z,93.14
2023-04-29T22:33:31.635Z,92.27
2023-04-29T22:35:59.801Z,93.24
2023-04-29T22:38:28.326Z,93.61
2023-04-29T22:40:57.853Z,93.78
2023-04-29T22:43:26.005Z,93.36
2023-04-29T22:45:54.837Z,93.24
2023-04-29T22:48:25.789Z,93.39
2023-04-29T22:50:58.673Z,93.69
2023-04-29T22:53:27.118Z,93.07
2023-04-29T22:55:58.485Z,93.30
2023-04-29T22:58:27.589Z,93.14
2023-04-29T23:00:58.162Z,93.63
2023-04-29T23:03:27.447Z,93.02
2023-04-29T23:05:59.446Z,94.26
2023-04-29T23:08:27.898Z,93.19
2023-04-29T23:10:57.398Z,94.17
2023-04-29T23:13:25.630Z,94.68
2023-04-29T23:15:57.817Z,93.08
2023-04-29T23:18:26.185Z,93.57
2023-04-29T23:20:55.246Z,93.29
2023-04-29T23:23:23.511Z,94.25
2023-04-29T23:25:51.806Z,93.50
2023-04-29T23:28:21.957Z,93.83
2023-04-29T23:30:50.142Z,94.45
2023-04-29T23:33:18.314Z,94.43
2023-04-29T23:35:50.625Z,95.41
2023-04-29T23:38:19.602Z,94.78
2023-04-29T23:40:53.933Z,95.35
2023-04-29T23:43:23.486Z,95.14
2023-04-29T23:45:52.965Z,94.26
2023-04-29T23:48:21.329Z,95.55
2023-04-29T23:50:49.478Z,95.33
2023-04-29T23:53:18.429Z,94.69
2023-04-29T23:55:46.588Z,95.16
2023-04-29T23:58:14.856Z,95.16
